createdAt,value
2018-12-19T00:00:27.839Z,43.66
2018-12-19T00:01:27.848Z,43.24
2018-12-19T00:02:27.820Z,43.34
2018-12-19T00:03:27.799Z,42.64
2018-12-19T00:04:27.825Z,42.44
2018-12-19T00:05:27.781Z,42.24
2018-12-19T00:06:27.771Z,43.14
2018-12-19T00:07:27.799Z,42.94
2018-12-19T00:08:27.747Z,43.74
2018-12-19T00:09:27.771Z,43.72
2018-12-19T00:10:27.845Z,43.32
2018-12-19T00:11:27.750Z,42.52
2018-12-19T00:12:27.747Z,42.61
2018-12-19T00:13:27.694Z,43.02
2018-12-19T00:14:27.759Z,42.52
2018-12-19T00:15:27.676Z,42.52
2018-12-19T00:16:27.665Z,43.22
2018-12-19T00:17:27.652Z,42.61
2018-12-19T00:18:27.641Z,42.01
2018-12-19T00:19:27.625Z,41.91
2018-12-19T00:20:27.627Z,42.32
2018-12-19T00:21:27.605Z,42.01
2018-12-19T00:22:27.599Z,42.01
2018-12-19T00:23:27.614Z,42.01
2018-12-19T00:24:27.629Z,42.21
2018-12-19T00:25:27.621Z,41.73
2018-12-19T00:26:27.563Z,42.01
2018-12-19T00:27:27.572Z,42.21
2018-12-19T00:28:27.555Z,41.93
2018-12-19T00:29:27.538Z,41.63
2018-12-19T00:30:27.554Z,41.83
2018-12-19T00:31:27.503Z,41.63
2018-12-19T00:32:27.490Z,41.73
2018-12-19T00:33:27.481Z,41.93
2018-12-19T00:34:27.487Z,42.03
2018-12-19T00:35:27.486Z,42.24
2018-12-19T00:36:27.463Z,42.96
2018-12-19T00:37:27.450Z,42.25
2018-12-19T00:38:27.428Z,41.75
2018-12-19T00:39:27.417Z,42.35
2018-12-19T00:40:27.431Z,42.35
2018-12-19T00:41:27.399Z,43.16
2018-12-19T00:42:27.427Z,41.75
2018-12-19T00:43:27.377Z,42.35
2018-12-19T00:44:27.367Z,43.06
2018-12-19T00:45:27.391Z,42.76
2018-12-19T00:46:27.350Z,42.88
2018-12-19T00:47:27.335Z,43.06
2018-12-19T00:48:27.377Z,41.85
2018-12-19T00:49:27.379Z,43.06
2018-12-19T00:50:27.342Z,42.25
2018-12-19T00:51:27.313Z,42.27
2018-12-19T00:52:27.275Z,42.58
2018-12-19T00:53:27.268Z,42.07
2018-12-19T00:54:27.276Z,42.07
2018-12-19T00:55:27.281Z,43.28
2018-12-19T00:56:27.255Z,43.48
2018-12-19T00:57:27.240Z,42.58
2018-12-19T00:58:27.266Z,42.58
2018-12-19T00:59:27.205Z,43.48
2018-12-19T01:00:27.227Z,42.58
2018-12-19T01:01:27.200Z,43.38
2018-12-19T01:02:27.186Z,43.79
2018-12-19T01:03:27.173Z,42.96
2018-12-19T01:04:27.212Z,43.28
2018-12-19T01:05:27.176Z,42.25
2018-12-19T01:06:27.144Z,42.46
2018-12-19T01:07:27.132Z,42.66
2018-12-19T01:08:27.119Z,42.76
2018-12-19T01:09:27.126Z,42.33
2018-12-19T01:10:27.101Z,41.93
2018-12-19T01:11:27.104Z,42.24
2018-12-19T01:12:27.100Z,42.03
2018-12-19T01:13:27.113Z,42.03
2018-12-19T01:14:27.097Z,42.03
2018-12-19T01:15:27.041Z,42.24
2018-12-19T01:16:27.058Z,42.33
2018-12-19T01:17:27.017Z,42.61
2018-12-19T01:18:27.003Z,41.51
2018-12-19T01:19:26.990Z,41.21
2018-12-19T01:20:27.012Z,41.91
2018-12-19T01:21:26.977Z,41.41
2018-12-19T01:22:27.080Z,41.71
2018-12-19T01:23:26.977Z,41.71
2018-12-19T01:24:26.942Z,41.71
2018-12-19T01:25:26.932Z,42.01
2018-12-19T01:26:26.935Z,41.82
2018-12-19T01:27:26.923Z,41.61
2018-12-19T01:28:26.897Z,41.69
2018-12-19T01:29:26.895Z,41.29
2018-12-19T01:30:26.871Z,41.29
2018-12-19T01:31:26.869Z,41.59
2018-12-19T01:32:26.863Z,40.48
2018-12-19T01:33:26.840Z,41.59
2018-12-19T01:34:26.831Z,40.79
2018-12-19T01:35:26.824Z,40.99
2018-12-19T01:36:26.808Z,40.99
2018-12-19T01:37:26.825Z,41.39
2018-12-19T01:38:26.784Z,40.99
2018-12-19T01:39:26.776Z,40.59
2018-12-19T01:40:26.769Z,40.99
2018-12-19T01:41:26.759Z,40.59
2018-12-19T01:42:26.774Z,40.48
2018-12-19T01:43:26.740Z,40.99
2018-12-19T01:44:26.721Z,40.77
2018-12-19T01:45:26.718Z,40.77
2018-12-19T01:46:26.705Z,40.87
2018-12-19T01:47:26.694Z,41.07
2018-12-19T01:48:26.729Z,41.17
2018-12-19T01:49:26.680Z,40.87
2018-12-19T01:50:26.665Z,41.27
2018-12-19T01:51:26.644Z,40.97
2018-12-19T01:52:26.649Z,41.37
2018-12-19T01:53:26.657Z,40.37
2018-12-19T01:54:26.618Z,39.86
2018-12-19T01:55:26.606Z,40.47
2018-12-19T01:56:26.599Z,40.67
2018-12-19T01:57:26.591Z,39.95
2018-12-19T01:58:26.589Z,39.97
2018-12-19T01:59:26.565Z,40.37
2018-12-19T02:00:26.569Z,39.86
2018-12-19T02:01:26.542Z,39.76
2018-12-19T02:02:26.535Z,39.97
2018-12-19T02:03:26.537Z,40.47
2018-12-19T02:04:26.527Z,40.97
2018-12-19T02:05:26.511Z,40.25
2018-12-19T02:06:26.492Z,40.37
2018-12-19T02:07:26.484Z,40.57
2018-12-19T02:08:26.488Z,40.05
2018-12-19T02:09:28.984Z,40.26
2018-12-19T02:10:26.448Z,39.95
2018-12-19T02:11:26.446Z,39.56
2018-12-19T02:12:26.434Z,39.86
2018-12-19T02:13:26.487Z,39.97
2018-12-19T02:14:26.414Z,39.97
2018-12-19T02:15:26.402Z,39.56
2018-12-19T02:16:26.393Z,39.86
2018-12-19T02:17:26.375Z,40.06
2018-12-19T02:18:26.410Z,39.76
2018-12-19T02:19:26.367Z,40.37
2018-12-19T02:20:26.344Z,39.76
2018-12-19T02:21:26.333Z,40.67
2018-12-19T02:22:26.323Z,40.06
2018-12-19T02:23:26.314Z,39.66
2018-12-19T02:24:26.328Z,40.37
2018-12-19T02:25:26.296Z,40.15
2018-12-19T02:26:26.279Z,39.76
2018-12-19T02:27:26.290Z,40.35
2018-12-19T02:28:26.262Z,39.86
2018-12-19T02:29:26.272Z,39.97
2018-12-19T02:30:26.240Z,39.76
2018-12-19T02:31:26.226Z,39.95
2018-12-19T02:32:26.218Z,39.97
2018-12-19T02:33:26.210Z,40.35
2018-12-19T02:34:26.207Z,39.64
2018-12-19T02:35:26.188Z,40.05
2018-12-19T02:36:26.183Z,40.15
2018-12-19T02:37:26.167Z,40.25
2018-12-19T02:38:26.164Z,39.64
2018-12-19T02:39:26.176Z,39.64
2018-12-19T02:40:26.134Z,39.75
2018-12-19T02:41:26.127Z,40.15
2018-12-19T02:42:26.213Z,39.95
2018-12-19T02:43:26.123Z,39.75
2018-12-19T02:44:26.109Z,39.95
2018-12-19T02:45:26.129Z,40.05
2018-12-19T02:46:26.071Z,40.35
2018-12-19T02:47:26.064Z,39.16
2018-12-19T02:48:26.051Z,40.15
2018-12-19T02:49:26.038Z,40.17
2018-12-19T02:50:26.054Z,39.76
2018-12-19T02:51:26.027Z,39.84
2018-12-19T02:52:26.006Z,39.84
2018-12-19T02:53:25.997Z,40.15
2018-12-19T02:54:26.008Z,39.25
2018-12-19T02:55:25.987Z,40.15
2018-12-19T02:56:25.963Z,40.25
2018-12-19T02:57:25.956Z,40.25
2018-12-19T02:58:25.944Z,39.84
2018-12-19T02:59:25.933Z,39.54
2018-12-19T03:00:25.954Z,38.34
2018-12-19T03:01:25.914Z,39.95
2018-12-19T03:02:25.902Z,39.45
2018-12-19T03:03:25.892Z,40.05
2018-12-19T03:04:26.005Z,39.34
2018-12-19T03:05:25.906Z,39.54
2018-12-19T03:06:25.863Z,40.33
2018-12-19T03:07:25.850Z,39.54
2018-12-19T03:08:25.837Z,39.75
2018-12-19T03:09:25.833Z,39.14
2018-12-19T03:10:25.815Z,38.94
2018-12-19T03:11:25.826Z,39.54
2018-12-19T03:12:25.795Z,39.45
2018-12-19T03:13:25.785Z,39.75
2018-12-19T03:14:25.790Z,39.54
2018-12-19T03:15:25.766Z,38.64
2018-12-19T03:16:25.768Z,38.34
2018-12-19T03:17:25.745Z,39.25
2018-12-19T03:18:25.737Z,39.64
2018-12-19T03:19:26.760Z,39.25
2018-12-19T03:20:25.723Z,39.25
2018-12-19T03:21:25.722Z,38.66
2018-12-19T03:22:25.691Z,38.76
2018-12-19T03:23:25.684Z,38.38
2018-12-19T03:24:25.674Z,39.08
2018-12-19T03:25:25.669Z,38.98
2018-12-19T03:26:25.677Z,40.28
2018-12-19T03:27:25.639Z,39.60
2018-12-19T03:28:25.632Z,40.30
2018-12-19T03:29:25.681Z,39.70
2018-12-19T03:30:25.618Z,39.80
2018-12-19T03:31:25.625Z,39.70
2018-12-19T03:32:25.599Z,40.20
2018-12-19T03:33:25.585Z,40.20
2018-12-19T03:34:25.576Z,39.60
2018-12-19T03:35:25.569Z,40.42
2018-12-19T03:36:25.563Z,39.92
2018-12-19T03:37:25.547Z,40.12
2018-12-19T03:38:25.528Z,40.53
2018-12-19T03:39:25.516Z,40.92
2018-12-19T03:40:25.516Z,41.03
2018-12-19T03:41:25.527Z,40.53
2018-12-19T03:42:25.484Z,40.73
2018-12-19T03:43:25.496Z,41.13
2018-12-19T03:44:25.461Z,40.62
2018-12-19T03:45:25.458Z,41.01
2018-12-19T03:46:25.444Z,40.73
2018-12-19T03:47:25.456Z,40.91
2018-12-19T03:48:25.420Z,41.31
2018-12-19T03:49:25.409Z,41.11
2018-12-19T03:50:25.403Z,41.01
2018-12-19T03:51:25.396Z,40.41
2018-12-19T03:52:25.396Z,41.41
2018-12-19T03:53:25.366Z,40.00
2018-12-19T03:54:25.375Z,40.79
2018-12-19T03:55:25.346Z,40.39
2018-12-19T03:56:25.333Z,40.39
2018-12-19T03:57:25.336Z,40.08
2018-12-19T03:58:25.313Z,39.98
2018-12-19T03:59:25.303Z,40.39
2018-12-19T04:00:25.300Z,40.08
2018-12-19T04:01:25.281Z,39.58
2018-12-19T04:02:25.290Z,39.58
2018-12-19T04:03:25.264Z,40.19
2018-12-19T04:04:25.252Z,39.86
2018-12-19T04:05:25.238Z,39.88
2018-12-19T04:06:25.248Z,39.76
2018-12-19T04:07:25.234Z,39.66
2018-12-19T04:08:25.208Z,40.06
2018-12-19T04:09:25.199Z,39.66
2018-12-19T04:10:25.196Z,40.06
2018-12-19T04:11:25.172Z,40.17
2018-12-19T04:12:25.188Z,40.47
2018-12-19T04:13:25.171Z,40.17
2018-12-19T04:14:25.147Z,40.06
2018-12-19T04:15:25.136Z,40.06
2018-12-19T04:16:25.131Z,39.86
2018-12-19T04:17:25.150Z,39.06
2018-12-19T04:18:25.112Z,39.76
2018-12-19T04:19:25.123Z,40.17
2018-12-19T04:20:25.086Z,40.06
2018-12-19T04:21:25.078Z,39.86
2018-12-19T04:22:25.099Z,40.06
2018-12-19T04:23:25.050Z,40.06
2018-12-19T04:24:25.042Z,39.56
2018-12-19T04:25:25.042Z,39.47
2018-12-19T04:26:25.026Z,39.86
2018-12-19T04:27:25.013Z,39.56
2018-12-19T04:28:25.043Z,39.56
2018-12-19T04:29:24.988Z,39.25
2018-12-19T04:30:24.978Z,39.54
2018-12-19T04:31:24.987Z,39.14
2018-12-19T04:32:24.972Z,38.44
2018-12-19T04:33:24.978Z,38.54
2018-12-19T04:34:24.991Z,39.34
2018-12-19T04:35:24.941Z,39.14
2018-12-19T04:36:24.921Z,39.54
2018-12-19T04:37:24.947Z,38.42
2018-12-19T04:38:24.914Z,38.94
2018-12-19T04:39:24.929Z,38.82
2018-12-19T04:40:24.880Z,38.62
2018-12-19T04:41:24.875Z,38.62
2018-12-19T04:42:24.851Z,38.72
2018-12-19T04:43:24.855Z,38.82
2018-12-19T04:44:24.848Z,38.72
2018-12-19T04:45:24.830Z,38.62
2018-12-19T04:46:24.835Z,38.92
2018-12-19T04:47:24.807Z,38.72
2018-12-19T04:48:24.847Z,38.62
2018-12-19T04:49:24.780Z,38.42
2018-12-19T04:50:24.774Z,39.03
2018-12-19T04:51:24.765Z,38.02
2018-12-19T04:52:24.758Z,38.72
2018-12-19T04:53:24.763Z,37.92
2018-12-19T04:54:24.737Z,37.92
2018-12-19T04:55:24.724Z,38.72
2018-12-19T04:56:24.735Z,38.62
2018-12-19T04:57:24.707Z,39.03
2018-12-19T04:58:24.737Z,38.02
2018-12-19T04:59:24.687Z,38.02
2018-12-19T05:00:24.681Z,38.62
2018-12-19T05:01:24.663Z,38.72
2018-12-19T05:02:24.656Z,38.82
2018-12-19T05:03:24.669Z,38.22
2018-12-19T05:04:24.653Z,38.42
2018-12-19T05:05:24.623Z,38.82
2018-12-19T05:06:24.607Z,37.94
2018-12-19T05:07:24.603Z,38.12
2018-12-19T05:08:24.591Z,39.53
2018-12-19T05:09:24.597Z,39.83
2018-12-19T05:10:24.566Z,39.53
2018-12-19T05:11:24.571Z,39.03
2018-12-19T05:12:24.563Z,38.32
2018-12-19T05:13:24.544Z,38.62
2018-12-19T05:14:24.552Z,38.32
2018-12-19T05:15:24.547Z,38.92
2018-12-19T05:16:24.514Z,38.53
2018-12-19T05:17:24.564Z,38.51
2018-12-19T05:18:24.488Z,38.92
2018-12-19T05:19:24.491Z,39.21
2018-12-19T05:20:24.466Z,38.92
2018-12-19T05:21:24.456Z,38.81
2018-12-19T05:22:24.464Z,39.01
2018-12-19T05:23:24.434Z,38.90
2018-12-19T05:24:24.452Z,38.90
2018-12-19T05:25:24.417Z,37.40
2018-12-19T05:26:24.422Z,38.82
2018-12-19T05:27:24.394Z,38.82
2018-12-19T05:28:24.400Z,38.62
2018-12-19T05:29:24.387Z,38.22
2018-12-19T05:30:24.362Z,38.62
2018-12-19T05:31:24.351Z,38.72
2018-12-19T05:32:24.336Z,39.12
2018-12-19T05:33:24.341Z,38.82
2018-12-19T05:34:24.329Z,38.82
2018-12-19T05:35:24.311Z,38.53
2018-12-19T05:36:24.296Z,38.84
2018-12-19T05:37:24.282Z,39.04
2018-12-19T05:38:24.285Z,38.34
2018-12-19T05:39:24.282Z,38.44
2018-12-19T05:40:24.255Z,38.34
2018-12-19T05:41:24.238Z,38.74
2018-12-19T05:42:24.228Z,38.74
2018-12-19T05:43:24.225Z,38.34
2018-12-19T05:44:24.224Z,38.76
2018-12-19T05:45:24.196Z,38.44
2018-12-19T05:46:24.181Z,39.45
2018-12-19T05:47:24.169Z,38.96
2018-12-19T05:48:24.162Z,38.56
2018-12-19T05:49:24.283Z,38.46
2018-12-19T05:50:24.142Z,39.58
2018-12-19T05:51:24.130Z,39.69
2018-12-19T05:52:24.134Z,38.98
2018-12-19T05:53:24.120Z,39.88
2018-12-19T05:54:24.125Z,39.08
2018-12-19T05:55:24.094Z,39.58
2018-12-19T05:56:24.078Z,40.39
2018-12-19T05:57:24.087Z,41.29
2018-12-19T05:58:24.057Z,40.99
2018-12-19T05:59:24.065Z,40.59
2018-12-19T06:00:24.036Z,41.59
2018-12-19T06:01:24.055Z,41.49
2018-12-19T06:02:24.012Z,41.99
2018-12-19T06:03:24.008Z,42.10
2018-12-19T06:04:24.001Z,43.02
2018-12-19T06:05:23.985Z,43.00
2018-12-19T06:06:23.992Z,43.62
2018-12-19T06:07:23.989Z,43.80
2018-12-19T06:08:23.957Z,43.42
2018-12-19T06:09:23.960Z,44.31
2018-12-19T06:10:26.267Z,44.81
2018-12-19T06:11:23.940Z,44.73
2018-12-19T06:12:23.935Z,45.94
2018-12-19T06:13:23.898Z,46.23
2018-12-19T06:14:23.886Z,46.14
2018-12-19T06:15:23.883Z,47.85
2018-12-19T06:16:23.883Z,47.64
2018-12-19T06:17:23.854Z,47.64
2018-12-19T06:18:23.848Z,47.54
2018-12-19T06:19:23.836Z,49.33
2018-12-19T06:20:23.834Z,48.93
2018-12-19T06:21:23.880Z,48.95
2018-12-19T06:22:23.861Z,48.63
2018-12-19T06:23:23.801Z,48.83
2018-12-19T06:24:23.782Z,48.95
2018-12-19T06:25:23.772Z,48.93
2018-12-19T06:26:23.777Z,48.93
2018-12-19T06:27:23.758Z,49.13
2018-12-19T06:28:23.746Z,49.13
2018-12-19T06:29:23.730Z,48.43
2018-12-19T06:30:23.739Z,48.83
2018-12-19T06:31:23.725Z,48.63
2018-12-19T06:32:23.698Z,48.83
2018-12-19T06:33:23.684Z,47.42
2018-12-19T06:34:23.674Z,47.32
2018-12-19T06:35:23.665Z,46.92
2018-12-19T06:36:23.697Z,46.81
2018-12-19T06:37:23.648Z,46.72
2018-12-19T06:38:23.652Z,46.22
2018-12-19T06:39:23.628Z,46.31
2018-12-19T06:40:23.624Z,45.91
2018-12-19T06:41:23.625Z,47.14
2018-12-19T06:42:23.627Z,47.42
2018-12-19T06:43:23.611Z,45.91
2018-12-19T06:44:23.590Z,43.50
2018-12-19T06:45:23.557Z,42.32
2018-12-19T06:46:23.571Z,42.32
2018-12-19T06:47:23.544Z,43.52
2018-12-19T06:48:23.533Z,44.02
2018-12-19T06:49:23.518Z,44.02
2018-12-19T06:50:23.514Z,43.92
2018-12-19T06:51:23.542Z,43.14
2018-12-19T06:52:23.485Z,42.61
2018-12-19T06:53:23.476Z,42.33
2018-12-19T06:54:23.471Z,42.61
2018-12-19T06:55:23.455Z,42.32
2018-12-19T06:56:23.441Z,43.72
2018-12-19T06:57:23.447Z,43.14
2018-12-19T06:58:23.431Z,43.34
2018-12-19T06:59:23.413Z,43.22
2018-12-19T07:00:23.401Z,43.32
2018-12-19T07:01:23.391Z,42.84
2018-12-19T07:02:23.443Z,42.54
2018-12-19T07:03:23.375Z,43.54
2018-12-19T07:04:23.358Z,42.33
2018-12-19T07:05:23.356Z,42.64
2018-12-19T07:06:23.349Z,42.24
2018-12-19T07:07:23.342Z,44.65
2018-12-19T07:08:23.326Z,43.74
2018-12-19T07:09:23.311Z,43.64
2018-12-19T07:10:23.299Z,43.54
2018-12-19T07:11:23.293Z,43.74
2018-12-19T07:12:23.307Z,43.74
2018-12-19T07:13:23.280Z,43.84
2018-12-19T07:14:23.268Z,44.15
2018-12-19T07:15:23.251Z,44.04
2018-12-19T07:16:23.238Z,44.04
2018-12-19T07:17:23.243Z,43.34
2018-12-19T07:18:23.214Z,43.74
2018-12-19T07:19:23.200Z,43.54
2018-12-19T07:20:23.188Z,44.55
2018-12-19T07:21:23.173Z,44.55
2018-12-19T07:22:23.196Z,43.54
2018-12-19T07:23:23.159Z,43.95
2018-12-19T07:24:23.157Z,44.04
2018-12-19T07:25:23.137Z,44.04
2018-12-19T07:26:23.172Z,43.74
2018-12-19T07:27:23.146Z,43.84
2018-12-19T07:28:23.108Z,44.47
2018-12-19T07:29:23.089Z,43.95
2018-12-19T07:30:23.085Z,44.45
2018-12-19T07:31:23.205Z,43.74
2018-12-19T07:32:23.076Z,44.45
2018-12-19T07:33:23.049Z,44.04
2018-12-19T07:34:23.039Z,43.64
2018-12-19T07:35:23.028Z,44.15
2018-12-19T07:36:23.015Z,43.74
2018-12-19T07:37:23.032Z,43.74
2018-12-19T07:38:23.066Z,43.74
2018-12-19T07:39:22.993Z,42.54
2018-12-19T07:40:22.972Z,44.65
2018-12-19T07:41:22.963Z,42.64
2018-12-19T07:42:22.951Z,43.34
2018-12-19T07:43:22.962Z,42.33
2018-12-19T07:44:22.927Z,42.64
2018-12-19T07:45:22.933Z,43.64
2018-12-19T07:46:24.269Z,43.84
2018-12-19T07:47:22.930Z,44.04
2018-12-19T07:48:22.909Z,43.14
2018-12-19T07:49:22.881Z,42.33
2018-12-19T07:50:22.871Z,42.13
2018-12-19T07:51:23.800Z,44.65
2018-12-19T07:52:23.396Z,43.44
2018-12-19T07:53:22.879Z,43.64
2018-12-19T07:54:22.867Z,44.15
2018-12-19T07:55:22.819Z,43.84
2018-12-19T07:56:22.823Z,43.74
2018-12-19T07:57:22.845Z,44.15
2018-12-19T07:58:22.827Z,43.44
2018-12-19T07:59:22.773Z,43.04
2018-12-19T08:00:27.469Z,43.44
2018-12-19T08:01:23.764Z,44.04
2018-12-19T08:02:22.744Z,43.64
2018-12-19T08:03:22.750Z,43.34
2018-12-19T08:04:22.730Z,42.64
2018-12-19T08:05:26.071Z,43.04
2018-12-19T08:06:22.702Z,43.84
2018-12-19T08:07:22.689Z,43.74
2018-12-19T08:08:22.694Z,44.15
2018-12-19T08:09:22.665Z,44.24
2018-12-19T08:10:22.655Z,42.44
2018-12-19T08:11:22.644Z,43.34
2018-12-19T08:12:22.636Z,44.04
2018-12-19T08:13:22.686Z,43.76
2018-12-19T08:14:22.612Z,44.07
2018-12-19T08:15:22.603Z,43.56
2018-12-19T08:16:22.594Z,43.66
2018-12-19T08:17:22.579Z,43.96
2018-12-19T08:18:22.662Z,43.87
2018-12-19T08:19:22.572Z,44.17
2018-12-19T08:20:22.562Z,44.47
2018-12-19T08:21:22.537Z,44.97
2018-12-19T08:22:22.528Z,43.76
2018-12-19T08:23:22.524Z,44.87
2018-12-19T08:24:22.509Z,44.67
2018-12-19T08:25:22.505Z,43.96
2018-12-19T08:26:22.491Z,43.66
2018-12-19T08:27:22.471Z,44.77
2018-12-19T08:28:22.476Z,43.59
2018-12-19T08:29:22.456Z,43.99
2018-12-19T08:30:22.439Z,44.39
2018-12-19T08:31:22.429Z,44.37
2018-12-19T08:32:22.420Z,43.88
2018-12-19T08:33:22.438Z,42.47
2018-12-19T08:34:22.401Z,44.79
2018-12-19T08:35:22.388Z,44.59
2018-12-19T08:36:22.384Z,44.09
2018-12-19T08:37:22.368Z,43.79
2018-12-19T08:38:22.372Z,45.09
2018-12-19T08:39:22.343Z,44.59
2018-12-19T08:40:22.338Z,44.29
2018-12-19T08:41:22.321Z,44.39
2018-12-19T08:42:22.316Z,43.79
2018-12-19T08:43:22.315Z,43.99
2018-12-19T08:44:22.290Z,44.69
2018-12-19T08:45:22.293Z,44.09
2018-12-19T08:46:22.275Z,44.19
2018-12-19T08:47:22.268Z,44.39
2018-12-19T08:48:22.267Z,44.37
2018-12-19T08:49:22.254Z,44.69
2018-12-19T08:50:22.236Z,43.28
2018-12-19T08:51:22.221Z,43.99
2018-12-19T08:52:22.221Z,43.79
2018-12-19T08:53:22.259Z,43.88
2018-12-19T08:54:22.188Z,43.28
2018-12-19T08:55:22.191Z,44.09
2018-12-19T08:56:22.178Z,44.59
2018-12-19T08:57:22.230Z,44.69
2018-12-19T08:58:22.163Z,43.59
2018-12-19T08:59:22.133Z,43.59
2018-12-19T09:00:22.121Z,43.87
2018-12-19T09:01:22.126Z,43.68
2018-12-19T09:02:22.101Z,43.38
2018-12-19T09:03:22.098Z,44.09
2018-12-19T09:04:25.806Z,44.09
2018-12-19T09:05:22.069Z,43.99
2018-12-19T09:06:22.055Z,43.79
2018-12-19T09:07:22.053Z,44.49
2018-12-19T09:08:22.034Z,43.79
2018-12-19T09:09:22.043Z,44.69
2018-12-19T09:10:22.021Z,43.99
2018-12-19T09:11:22.018Z,44.69
2018-12-19T09:12:22.011Z,43.79
2018-12-19T09:13:21.986Z,44.59
2018-12-19T09:14:22.075Z,44.47
2018-12-19T09:15:27.508Z,44.37
2018-12-19T09:16:22.960Z,43.96
2018-12-19T09:17:21.947Z,43.56
2018-12-19T09:18:21.933Z,44.47
2018-12-19T09:19:21.934Z,43.96
2018-12-19T09:20:21.911Z,43.56
2018-12-19T09:21:21.901Z,43.46
2018-12-19T09:22:21.889Z,42.35
2018-12-19T09:23:21.892Z,43.76
2018-12-19T09:24:21.892Z,43.56
2018-12-19T09:25:21.865Z,42.86
2018-12-19T09:26:21.876Z,44.07
2018-12-19T09:27:21.854Z,43.87
2018-12-19T09:28:21.825Z,43.76
2018-12-19T09:29:21.838Z,44.37
2018-12-19T09:30:21.804Z,42.46
2018-12-19T09:31:21.796Z,43.76
2018-12-19T09:32:21.794Z,43.87
2018-12-19T09:33:27.394Z,43.66
2018-12-19T09:34:22.780Z,43.56
2018-12-19T09:35:21.753Z,43.76
2018-12-19T09:36:21.781Z,42.25
2018-12-19T09:37:21.887Z,43.76
2018-12-19T09:38:21.770Z,42.96
2018-12-19T09:39:21.734Z,42.35
2018-12-19T09:40:21.702Z,43.16
2018-12-19T09:41:21.759Z,43.66
2018-12-19T09:42:21.682Z,43.66
2018-12-19T09:43:21.668Z,44.07
2018-12-19T09:44:21.679Z,43.87
2018-12-19T09:45:21.649Z,43.87
2018-12-19T09:46:21.645Z,43.06
2018-12-19T09:47:21.631Z,43.76
2018-12-19T09:48:21.615Z,43.76
2018-12-19T09:49:21.606Z,42.66
2018-12-19T09:50:21.613Z,42.55
2018-12-19T09:51:21.623Z,43.76
2018-12-19T09:52:21.586Z,42.66
2018-12-19T09:53:21.578Z,42.76
2018-12-19T09:54:21.551Z,43.87
2018-12-19T09:55:21.576Z,43.06
2018-12-19T09:56:21.525Z,42.96
2018-12-19T09:57:21.535Z,42.86
2018-12-19T09:58:21.506Z,42.68
2018-12-19T09:59:21.499Z,42.46
2018-12-19T10:00:21.586Z,43.76
2018-12-19T10:01:21.557Z,42.35
2018-12-19T10:02:21.459Z,42.25
2018-12-19T10:03:21.456Z,42.35
2018-12-19T10:04:21.441Z,43.26
2018-12-19T10:05:21.464Z,42.76
2018-12-19T10:06:21.425Z,44.37
2018-12-19T10:07:21.422Z,43.06
2018-12-19T10:08:21.477Z,42.66
2018-12-19T10:09:21.454Z,42.46
2018-12-19T10:10:21.438Z,42.05
2018-12-19T10:11:21.376Z,43.26
2018-12-19T10:12:21.362Z,42.76
2018-12-19T10:13:21.350Z,43.56
2018-12-19T10:14:21.346Z,42.96
2018-12-19T10:15:21.358Z,42.15
2018-12-19T10:16:21.362Z,42.24
2018-12-19T10:17:21.311Z,42.05
2018-12-19T10:18:21.299Z,43.06
2018-12-19T10:19:21.285Z,43.24
2018-12-19T10:20:21.298Z,43.06
2018-12-19T10:21:21.272Z,42.46
2018-12-19T10:22:21.279Z,43.36
2018-12-19T10:23:21.329Z,43.46
2018-12-19T10:24:21.230Z,42.35
2018-12-19T10:25:21.240Z,43.04
2018-12-19T10:26:21.216Z,42.25
2018-12-19T10:27:21.202Z,42.15
2018-12-19T10:28:21.190Z,43.06
2018-12-19T10:29:21.176Z,43.56
2018-12-19T10:30:21.192Z,44.07
2018-12-19T10:31:21.162Z,44.07
2018-12-19T10:32:21.144Z,42.35
2018-12-19T10:33:21.153Z,43.26
2018-12-19T10:34:21.123Z,43.36
2018-12-19T10:35:21.109Z,42.76
2018-12-19T10:36:21.144Z,43.96
2018-12-19T10:37:21.094Z,43.56
2018-12-19T10:38:21.082Z,43.06
2018-12-19T10:39:21.070Z,43.06
2018-12-19T10:40:21.065Z,42.86
2018-12-19T10:41:25.406Z,42.66
2018-12-19T10:42:21.042Z,42.35
2018-12-19T10:43:21.028Z,42.47
2018-12-19T10:44:21.023Z,42.58
2018-12-19T10:45:21.004Z,43.28
2018-12-19T10:46:21.029Z,43.88
2018-12-19T10:47:20.985Z,42.66
2018-12-19T10:48:20.974Z,44.19
2018-12-19T10:49:20.963Z,43.28
2018-12-19T10:50:21.018Z,43.59
2018-12-19T10:51:20.989Z,43.79
2018-12-19T10:52:20.931Z,43.59
2018-12-19T10:53:20.926Z,43.48
2018-12-19T10:54:20.937Z,43.08
2018-12-19T10:55:20.902Z,42.68
2018-12-19T10:56:20.916Z,42.07
2018-12-19T10:57:20.889Z,42.88
2018-12-19T10:58:20.876Z,43.46
2018-12-19T10:59:20.888Z,43.18
2018-12-19T11:00:20.888Z,42.18
2018-12-19T11:01:20.892Z,43.38
2018-12-19T11:02:20.866Z,42.88
2018-12-19T11:03:20.821Z,43.48
2018-12-19T11:04:20.810Z,43.18
2018-12-19T11:05:20.801Z,42.68
2018-12-19T11:06:20.825Z,43.18
2018-12-19T11:07:20.771Z,42.98
2018-12-19T11:08:20.776Z,42.38
2018-12-19T11:09:20.762Z,43.79
2018-12-19T11:10:20.755Z,42.27
2018-12-19T11:11:20.730Z,42.66
2018-12-19T11:12:20.747Z,42.68
2018-12-19T11:13:20.734Z,43.06
2018-12-19T11:14:20.773Z,42.66
2018-12-19T11:15:20.689Z,42.46
2018-12-19T11:16:20.679Z,42.25
2018-12-19T11:17:20.677Z,42.86
2018-12-19T11:18:20.682Z,43.46
2018-12-19T11:19:20.658Z,42.96
2018-12-19T11:20:20.655Z,41.85
2018-12-19T11:21:20.629Z,42.66
2018-12-19T11:22:20.636Z,42.35
2018-12-19T11:23:20.613Z,42.25
2018-12-19T11:24:20.606Z,42.15
2018-12-19T11:25:20.581Z,41.85
2018-12-19T11:26:20.578Z,42.66
2018-12-19T11:27:20.615Z,42.66
2018-12-19T11:28:20.550Z,43.06
2018-12-19T11:29:20.547Z,42.25
2018-12-19T11:30:20.537Z,42.25
2018-12-19T11:31:20.550Z,42.55
2018-12-19T11:32:20.536Z,42.66
2018-12-19T11:33:20.530Z,42.88
2018-12-19T11:34:20.493Z,42.05
2018-12-19T11:35:20.480Z,41.85
2018-12-19T11:36:20.469Z,42.66
2018-12-19T11:37:20.475Z,42.05
2018-12-19T11:38:20.459Z,42.66
2018-12-19T11:39:20.454Z,41.25
2018-12-19T11:40:20.440Z,42.15
2018-12-19T11:41:20.415Z,42.86
2018-12-19T11:42:20.424Z,42.05
2018-12-19T11:43:20.405Z,41.95
2018-12-19T11:44:20.389Z,41.95
2018-12-19T11:45:20.395Z,41.85
2018-12-19T11:46:20.371Z,42.35
2018-12-19T11:47:20.374Z,42.25
2018-12-19T11:48:20.343Z,42.15
2018-12-19T11:49:20.333Z,42.05
2018-12-19T11:50:20.323Z,42.25
2018-12-19T11:51:20.314Z,43.06
2018-12-19T11:52:20.339Z,42.05
2018-12-19T11:53:20.297Z,42.66
2018-12-19T11:54:20.301Z,42.05
2018-12-19T11:55:20.425Z,41.73
2018-12-19T11:56:20.276Z,42.46
2018-12-19T11:57:20.267Z,41.85
2018-12-19T11:58:20.280Z,42.35
2018-12-19T11:59:20.297Z,42.03
2018-12-19T12:00:20.236Z,41.95
2018-12-19T12:01:20.218Z,42.25
2018-12-19T12:02:20.218Z,42.03
2018-12-19T12:03:20.200Z,42.05
2018-12-19T12:04:20.247Z,41.93
2018-12-19T12:05:20.197Z,42.35
2018-12-19T12:06:20.170Z,42.24
2018-12-19T12:07:20.200Z,42.03
2018-12-19T12:08:20.145Z,41.83
2018-12-19T12:09:20.133Z,42.13
2018-12-19T12:10:20.157Z,41.53
2018-12-19T12:11:20.111Z,42.33
2018-12-19T12:12:20.127Z,41.53
2018-12-19T12:13:20.089Z,42.84
2018-12-19T12:14:20.105Z,42.64
2018-12-19T12:15:20.077Z,42.25
2018-12-19T12:16:20.151Z,42.35
2018-12-19T12:17:20.084Z,42.03
2018-12-19T12:18:20.037Z,41.83
2018-12-19T12:19:20.017Z,41.93
2018-12-19T12:20:19.998Z,42.13
2018-12-19T12:21:19.989Z,42.33
2018-12-19T12:22:20.017Z,41.83
2018-12-19T12:23:19.981Z,42.33
2018-12-19T12:24:19.972Z,41.73
2018-12-19T12:25:19.968Z,41.43
2018-12-19T12:26:19.934Z,41.53
2018-12-19T12:27:19.953Z,41.65
2018-12-19T12:28:19.929Z,41.43
2018-12-19T12:29:19.913Z,41.73
2018-12-19T12:30:19.891Z,42.64
2018-12-19T12:31:19.890Z,41.93
2018-12-19T12:32:19.911Z,42.03
2018-12-19T12:33:19.871Z,41.73
2018-12-19T12:34:19.890Z,41.33
2018-12-19T12:35:19.915Z,42.03
2018-12-19T12:36:19.837Z,41.93
2018-12-19T12:37:19.822Z,41.73
2018-12-19T12:38:19.837Z,41.73
2018-12-19T12:39:19.794Z,41.93
2018-12-19T12:40:19.807Z,42.24
2018-12-19T12:41:19.793Z,41.93
2018-12-19T12:42:19.784Z,41.73
2018-12-19T12:43:19.791Z,41.63
2018-12-19T12:44:19.770Z,41.93
2018-12-19T12:45:19.740Z,42.03
2018-12-19T12:46:19.752Z,42.24
2018-12-19T12:47:19.712Z,41.82
2018-12-19T12:48:19.744Z,41.83
2018-12-19T12:49:19.715Z,41.61
2018-12-19T12:50:19.687Z,41.83
2018-12-19T12:51:19.692Z,41.63
2018-12-19T12:52:19.695Z,41.43